Data for 07/18/2016

Time Sea-Level Adjusted Pressure Absolute Pressure Temperature Relative Humidity Dew Point   
(mb) (inHg) (mb) (inHg) (C) (F) (%) (C) (F)
00:05 1019 30.09 848 25.04 18 64.3 51 7.9 46.1
00:10 1019 30.09 848 25.04 17.9 64.1 52 8 46.4
00:15 1019 30.09 848 25.04 17.7 63.9 53 8.1 46.5
00:20 1019 30.09 848 25.04 17.6 63.6 53 8 46.5
00:25 1019 30.09 849 25.07 17.5 63.4 54 8.2 46.7
00:30 1019 30.09 848 25.04 17.4 63.2 54 8.2 46.7
00:35 1019 30.09 848 25.04 17.2 63 55 8.2 46.8
00:40 1019 30.09 848 25.04 17.1 62.8 55 8.2 46.8
00:45 1019 30.09 848 25.04 17.1 62.7 56 8.3 47
00:50 1019 30.09 848 25.04 16.9 62.5 57 8.3 47
00:55 1019 30.09 848 25.04 16.8 62.2 57 8.3 47
01:00 1019 30.09 849 25.07 16.8 62.2 57 8.3 46.9
01:05 1019 30.09 849 25.07 16.6 61.9 58 8.4 47.1
01:10 1019 30.09 849 25.07 16.5 61.7 58 8.2 46.8
01:15 1019 30.09 848 25.04 16.5 61.7 58 8.3 46.9
01:20 1019 30.09 848 25.04 16.3 61.4 59 8.4 47.2
01:25 1019 30.09 849 25.07 16.2 61.2 59 8.4 47.1
01:30 1019 30.09 848 25.04 16.1 61 60 8.3 47
01:35 1019 30.09 848 25.04 16 60.8 61 8.5 47.2
01:40 1019 30.09 849 25.07 15.9 60.7 61 8.4 47.1
01:45 1019 30.09 849 25.07 15.8 60.5 61 8.5 47.2
01:50 1019 30.09 849 25.07 15.7 60.2 62 8.4 47.1
01:55 1019 30.09 849 25.07 15.7 60.2 62 8.4 47.1
02:00 1019 30.09 849 25.07 15.6 60 62 8.4 47.2
02:05 1019 30.09 849 25.07 15.5 59.9 62 8.3 47
02:10 1019 30.09 849 25.07 15.5 59.8 62 8.4 47.1
02:15 1019 30.09 849 25.07 15.5 59.8 62 8.4 47.2
02:20 1019 30.09 849 25.07 15.4 59.8 62 8.4 47.1
02:25 1019 30.09 849 25.07 15.4 59.7 63 8.4 47.1
02:30 1019 30.09 849 25.07 15.3 59.5 64 8.5 47.3
02:35 1019 30.09 849 25.07 15.2 59.4 63 8.3 47
02:40 1019 30.09 849 25.07 15.2 59.4 64 8.5 47.2
02:45 1020 30.12 849 25.07 15.2 59.3 64 8.4 47.1
02:50 1020 30.12 849 25.07 15.1 59.3 64 8.5 47.2
02:55 1020 30.12 849 25.07 15.1 59.2 64 8.5 47.2
03:00 1020 30.12 849 25.07 15.1 59.1 65 8.5 47.3
03:05 1020 30.12 849 25.07 15 58.9 65 8.6 47.4
03:10 1020 30.12 849 25.07 14.9 58.8 65 8.5 47.3
03:15 1020 30.12 849 25.07 14.8 58.7 66 8.5 47.4
03:20 1020 30.12 849 25.07 14.8 58.6 66 8.5 47.4
03:25 1020 30.12 849 25.07 14.8 58.6 66 8.6 47.4
03:30 1020 30.12 849 25.07 14.7 58.4 67 8.6 47.4
03:35 1020 30.12 849 25.07 14.6 58.2 67 8.6 47.6
03:40 1020 30.12 849 25.07 14.5 58.1 67 8.6 47.5
03:45 1020 30.12 849 25.07 14.5 58.1 67 8.6 47.5
03:50 1020 30.12 849 25.07 14.5 58.1 68 8.6 47.5
03:55 1020 30.12 849 25.07 14.5 58 68 8.7 47.6
04:00 1020 30.12 849 25.07 14.4 57.8 69 8.7 47.7
04:05 1020 30.12 849 25.07 14.3 57.8 69 8.7 47.7
04:10 1020 30.12 849 25.07 14.3 57.7 69 8.7 47.7
04:15 1020 30.12 849 25.07 14.2 57.6 69 8.7 47.6
04:20 1020 30.12 849 25.07 14.2 57.6 69 8.7 47.6
04:25 1020 30.12 849 25.07 14.2 57.5 70 8.8 47.8
04:30 1020 30.12 849 25.07 14.1 57.3 70 8.7 47.7
04:35 1020 30.12 849 25.07 14.1 57.3 70 8.7 47.7
04:40 1020 30.12 849 25.07 14 57.2 70 8.7 47.6
04:45 1020 30.12 849 25.07 14 57.2 70 8.7 47.7
04:50 1020 30.12 849 25.07 14 57.2 70 8.7 47.7
04:55 1020 30.12 849 25.07 14 57.2 70 8.7 47.6
05:00 1020 30.12 849 25.07 14 57.3 70 8.8 47.8
05:05 1020 30.12 849 25.07 14 57.1 71 8.8 47.8
05:10 1020 30.12 849 25.07 13.9 57.1 71 8.8 47.8
05:15 1020 30.12 849 25.07 13.9 57.1 71 8.7 47.7
05:20 1020 30.12 849 25.07 14 57.2 70 8.8 47.8
05:25 1020 30.12 849 25.07 14 57.3 70 8.8 47.8
05:30 1020 30.12 850 25.1 14.1 57.3 71 8.8 47.9
05:35 1020 30.12 850 25.1 14.1 57.4 70 8.8 47.9
05:40 1020 30.12 850 25.1 14.2 57.6 70 8.9 48
05:45 1020 30.12 850 25.1 14.3 57.7 69 8.8 47.9
05:50 1020 30.12 850 25.1 14.4 58 70 9 48.2
05:55 1021 30.15 850 25.1 14.3 57.8 70 9 48.1
06:00 1020 30.12 850 25.1 14.4 57.9 69 8.9 48.1
06:05 1021 30.15 850 25.1 14.5 58.1 69 8.9 48
06:10 1021 30.15 850 25.1 14.6 58.2 69 8.9 48.1
06:15 1021 30.15 850 25.1 14.7 58.4 68 8.9 48
06:20 1021 30.15 850 25.1 14.8 58.7 67 8.9 47.9
06:25 1021 30.15 850 25.1 15 59 67 9 48.2
06:30 1021 30.15 850 25.1 15.1 59.1 66 8.9 48
06:35 1021 30.15 850 25.1 15.2 59.4 66 9 48.2
06:40 1021 30.15 850 25.1 15.4 59.7 66 9.1 48.3
06:45 1021 30.15 850 25.1 15.5 59.9 65 9.1 48.4
06:50 1021 30.15 850 25.1 15.3 59.6 67 9.2 48.6
06:55 1021 30.15 850 25.1 15.2 59.4 67 9.1 48.4
07:00 1021 30.15 850 25.1 15.3 59.6 66 9.1 48.4
07:05 1021 30.15 850 25.1 15.5 60 65 9.1 48.5
07:10 1021 30.15 850 25.1 15.7 60.2 64 8.9 48.1
07:15 1021 30.15 850 25.1 15.8 60.4 64 9.1 48.4
07:20 1021 30.15 850 25.1 16.1 60.9 62 8.8 47.8
07:25 1021 30.15 850 25.1 16.2 61.2 63 9.2 48.6
07:30 1021 30.15 850 25.1 16.1 60.9 64 9.2 48.6
07:35 1021 30.15 850 25.1 16 60.8 64 9.2 48.5
07:40 1021 30.15 850 25.1 16 60.8 64 9.2 48.6
07:45 1021 30.15 850 25.1 16.7 62 61 9.2 48.6
07:50 1021 30.15 850 25.1 16.7 62 61 9.1 48.4
07:55 1021 30.15 850 25.1 16.8 62.2 61 9.2 48.6
08:00 1021 30.15 850 25.1 17.2 62.9 60 9.4 48.9
08:05 1021 30.15 850 25.1 17.3 63.1 57 8.7 47.7
08:10 1021 30.15 850 25.1 17.5 63.4 58 9.3 48.8
08:15 1021 30.15 850 25.1 17.4 63.2 57 8.9 48
08:20 1021 30.15 850 25.1 17.5 63.5 58 9.1 48.4
08:25 1021 30.15 850 25.1 17.5 63.4 57 9 48.3
08:30 1021 30.15 850 25.1 17.9 64.1 56 8.9 48.1
08:35 1021 30.15 850 25.1 17.9 64.3 56 9 48.2
08:40 1020 30.12 850 25.1 18.2 64.8 56 9.4 48.9
08:45 1020 30.12 850 25.1 18.4 65.1 55 9.3 48.7
08:50 1021 30.15 850 25.1 18.7 65.6 55 9.5 49
08:55 1020 30.12 850 25.1 19.5 67 52 9.4 48.9
09:00 1020 30.12 850 25.1 19.6 67.3 51 9.3 48.8
09:05 1020 30.12 850 25.1 19.8 67.7 52 9.8 49.7
09:10 1020 30.12 850 25.1 19.8 67.6 51 9.5 49.2
09:15 1020 30.12 850 25.1 19.6 67.2 52 9.6 49.2
09:20 1020 30.12 850 25.1 19.9 67.8 51 9.6 49.3
09:25 1020 30.12 849 25.07 20.2 68.4 49 9.4 48.8
09:30 1020 30.12 849 25.07 20 68.1 48 8.8 47.9
09:35 1020 30.12 849 25.07 20.3 68.5 48 9.1 48.5
09:40 1020 30.12 849 25.07 20.5 68.8 50 9.8 49.6
09:45 1020 30.12 849 25.07 20.3 68.5 50 9.7 49.5
09:50 1020 30.12 849 25.07 20.5 68.8 50 9.8 49.6
09:55 1020 30.12 849 25.07 20.1 68.1 52 10.2 50.3
10:00 1020 30.12 849 25.07 20 68.1 51 9.8 49.7
10:05 1020 30.12 849 25.07 20.1 68.2 50 9.4 48.9
10:10 1020 30.12 849 25.07 20.9 69.5 48 9.5 49.1
10:15 1020 30.12 849 25.07 20.5 68.9 49 9.7 49.5
10:20 1020 30.12 849 25.07 20.1 68.2 51 9.8 49.6
10:25 1020 30.12 849 25.07 20.6 69.1 47 9.2 48.5
10:30 1020 30.12 849 25.07 21.3 70.4 47 9.8 49.7
10:35 1020 30.12 849 25.07 21.5 70.8 45 9.4 48.9
10:40 1020 30.12 849 25.07 22.1 71.8 43 9.2 48.5
10:45 1019 30.09 849 25.07 22.5 72.4 45 10 50
10:50 1019 30.09 849 25.07 22.5 72.6 44 9.8 49.6
10:55 1019 30.09 849 25.07 22.9 73.1 42 9.5 49.2
11:00 1019 30.09 848 25.04 23.7 74.6 42 10.1 50.2
11:05 1019 30.09 848 25.04 24 75.1 41 10 50
11:10 1019 30.09 848 25.04 23.8 74.9 42 10.4 50.7
11:15 1019 30.09 848 25.04 24 75.1 41 10.2 50.4
11:20 1019 30.09 848 25.04 24.3 75.7 40 10 50
11:25 1019 30.09 848 25.04 24.4 75.9 40 10.1 50.2
11:30 1019 30.09 848 25.04 24.3 75.7 40 10 50
11:35 1019 30.09 848 25.04 24.6 76.2 38 9.6 49.3
11:40 1019 30.09 848 25.04 25.1 77.2 36 9.4 48.9
11:45 1019 30.09 848 25.04 25.2 77.3 38 10.2 50.4
11:50 1019 30.09 848 25.04 24.2 75.5 41 10.3 50.6
11:55 1019 30.09 848 25.04 24 75.2 39 9.5 49.1
12:00 1019 30.09 848 25.04 24.5 76.2 40 10.2 50.4
12:05 1019 30.09 848 25.04 24.6 76.3 39 10.1 50.2
12:10 1019 30.09 848 25.04 24.3 75.8 38 9.5 49.1
12:15 1019 30.09 848 25.04 24.7 76.5 39 10 50
12:20 1019 30.09 848 25.04 25.6 78 36 9.8 49.6
12:25 1019 30.09 848 25.04 26.2 79.1 36 10 50
12:30 1019 30.09 848 25.04 26.3 79.3 35 9.8 49.6
12:35 1019 30.09 848 25.04 26.3 79.4 35 9.9 49.8
12:40 1019 30.09 848 25.04 26.4 79.5 34 9.6 49.2
12:45 1019 30.09 848 25.04 26.5 79.7 34 9.7 49.4
12:50 1019 30.09 848 25.04 26.4 79.5 36 10.5 50.9
12:55 1019 30.09 848 25.04 25.9 78.7 36 10 50
13:00 1018 30.06 848 25.04 27 80.5 32 9.2 48.6
13:05 1018 30.06 848 25.04 27.4 81.2 34 10.3 50.6
13:10 1018 30.06 848 25.04 27.2 81 35 10.7 51.2
13:15 1018 30.06 847 25.01 28 82.3 34 11.1 52
13:20 1018 30.06 848 25.04 27.8 82 35 11.2 52.1
13:25 1018 30.06 847 25.01 27.8 82 33 10.4 50.8
13:30 1018 30.06 847 25.01 28.3 83 33 10.6 51.2
13:35 1018 30.06 847 25.01 28.2 82.8 32 10.4 50.8
13:40 1018 30.06 847 25.01 28.6 83.4 33 10.8 51.5
13:45 1018 30.06 847 25.01 28.5 83.3 32 10.6 51.1
13:50 1018 30.06 847 25.01 28.5 83.3 32 10.3 50.5
13:55 1018 30.06 847 25.01 28.2 82.8 32 10.2 50.4
14:00 1018 30.06 847 25.01 28.7 83.6 30 9.5 49.2
14:05 1018 30.06 847 25.01 28.2 82.7 31 9.7 49.5
14:10 1018 30.06 847 25.01 28.4 83.1 32 10.3 50.5
14:15 1018 30.06 847 25.01 27.6 81.6 32 9.9 49.8
14:20 1018 30.06 847 25.01 27.8 82 31 9.2 48.6
14:25 1018 30.06 847 25.01 28.8 83.9 30 9.9 49.9
14:30 1018 30.06 847 25.01 29.1 84.4 30 10.2 50.3
14:35 1018 30.06 847 25.01 29.4 84.9 30 10.2 50.4
14:40 1018 30.06 847 25.01 29.7 85.4 27 8.8 47.8
14:45 1017 30.03 847 25.01 29.7 85.5 27 9 48.2
14:50 1017 30.03 847 25.01 30 86.1 26 8.8 47.8
14:55 1017 30.03 847 25.01 29.7 85.4 27 9.2 48.5
15:00 1017 30.03 846 24.98 29.5 85 27 9 48.1
15:05 1017 30.03 846 24.98 28.8 83.8 28 8.5 47.3
15:10 1017 30.03 846 24.98 29.5 85 24 7.2 45
15:15 1017 30.03 846 24.98 30 86 24 7.4 45.4
15:20 1017 30.03 846 24.98 30.3 86.5 23 6.9 44.4
15:25 1017 30.03 846 24.98 30.6 87.1 22 7.2 44.9
15:30 1017 30.03 846 24.98 31 87.7 22 7 44.6
15:35 1017 30.03 846 24.98 31.4 88.6 20 6.2 43.1
15:40 1017 30.03 846 24.98 31.9 89.4 18 5.2 41.4
15:45 1017 30.03 846 24.98 31.1 87.9 19 5.3 41.6
15:50 1017 30.03 846 24.98 31 87.9 18 4.5 40.2
15:55 1017 30.03 846 24.98 31.2 88.1 20 6.2 43.2
16:00 1017 30.03 846 24.98 31.4 88.6 18 4.9 40.8
16:05 1017 30.03 846 24.98 31.5 88.7 20 6.2 43.1
16:10 1017 30.03 846 24.98 31 87.7 22 6.9 44.4
16:15 1017 30.03 846 24.98 30.5 86.9 23 7.3 45.1
16:20 1017 30.03 846 24.98 30.4 86.6 22 6.6 43.9
16:25 1017 30.03 846 24.98 30.7 87.3 20 5.9 42.6
16:30 1017 30.03 846 24.98 30.7 87.3 20 5.9 42.6
16:35 1017 30.03 846 24.98 30.8 87.4 18 4 39.1
16:40 1016 30 846 24.98 31.3 88.3 18 4.4 40
16:45 1016 30 846 24.98 31.6 89 10 -3.5 25.7
16:50 1016 30 846 24.98 31.8 89.2 9 -4.9 23.2
16:55 1016 30 846 24.98 31.7 89.1 9 -5.4 22.3
17:00 1016 30 845 24.95 32 89.5 8 -6.3 20.6
17:05 1016 30 845 24.95 31.8 89.2 8 -5.7 21.8
17:10 1016 30 845 24.95 31.7 89 8 -5.6 21.9
17:15 1016 30 845 24.95 31.7 89.1 8 -6.1 21
17:20 1016 30 845 24.95 32 89.7 8 -6.3 20.6
17:25 1016 30 845 24.95 32 89.7 8 -5.7 21.8
17:30 1016 30 845 24.95 31.8 89.3 10 -3.8 25.1
17:35 1016 30 845 24.95 31.5 88.7 8 -5.9 21.4
17:40 1016 30 845 24.95 31.5 88.7 9 -5.5 22.1
17:45 1016 30 845 24.95 31.4 88.5 9 -4.4 24.1
17:50 1016 30 845 24.95 31.3 88.4 10 -3.9 25
17:55 1016 30 845 24.95 31.3 88.3 10 -4.2 24.4
18:00 1016 30 845 24.95 31.1 88 10 -4.2 24.5
18:05 1016 30 845 24.95 31 87.8 10 -3.6 25.4
18:10 1016 30 845 24.95 31 87.8 10 -4.2 24.4
18:15 1016 30 845 24.95 31 87.8 10 -4.1 24.6
18:20 1016 30 845 24.95 31 87.8 10 -3.7 25.4
18:25 1016 30 845 24.95 30.8 87.5 10 -3.3 26
18:30 1016 30 845 24.95 30.6 87.1 10 -3.7 25.4
18:35 1016 30 845 24.95 30.6 87.2 10 -4.4 24.1
18:40 1016 30 845 24.95 30.3 86.6 11 -3.3 26
18:45 1016 30 845 24.95 30 86.1 11 -3.6 25.5
18:50 1016 30 846 24.98 29.9 85.7 11 -2.9 26.8
18:55 1016 30 846 24.98 29.7 85.5 11 -3.7 25.3
19:00 1016 30 846 24.98 29.6 85.2 10 -4.5 23.9
19:05 1016 30 846 24.98 29.5 85.2 11 -4.2 24.4
19:10 1016 30 846 24.98 29.3 84.8 11 -3.5 25.6
19:15 1016 30 846 24.98 29.2 84.6 11 -3.6 25.5
19:20 1016 30 846 24.98 29.1 84.5 12 -3.3 26.1
19:25 1017 30.03 846 24.98 28.9 84 12 -2.6 27.3
19:30 1016 30 846 24.98 28.9 84 11 -4.2 24.4
19:35 1017 30.03 846 24.98 28.9 84.1 12 -3.5 25.6
19:40 1017 30.03 846 24.98 28.4 83.1 12 -3 26.6
19:45 1017 30.03 846 24.98 28.7 83.6 11 -4.5 23.9
19:50 1017 30.03 846 24.98 28.4 83.2 11 -5.1 22.9
19:55 1017 30.03 846 24.98 28.7 83.6 10 -5.5 22.2
20:00 1017 30.03 846 24.98 28.7 83.6 11 -4.4 24.1
20:05 1017 30.03 846 24.98 28.1 82.5 11 -5.2 22.6
20:10 1017 30.03 846 24.98 28 82.5 11 -5 23
20:15 1017 30.03 846 24.98 27.7 81.9 11 -4.9 23.2
20:20 1017 30.03 846 24.98 27.6 81.6 11 -4.9 23.1
20:25 1017 30.03 846 24.98 27.5 81.6 11 -5.2 22.7
20:30 1017 30.03 846 24.98 27.5 81.5 11 -5.1 22.9
20:35 1017 30.03 846 24.98 27.2 81 12 -4.8 23.3
20:40 1017 30.03 846 24.98 27 80.6 11 -5.4 22.3
20:45 1017 30.03 846 24.98 27.1 80.8 11 -5.2 22.7
20:50 1017 30.03 846 24.98 27.2 80.9 11 -5.3 22.4
20:55 1017 30.03 846 24.98 27 80.7 12 -4.8 23.4
21:00 1017 30.03 846 24.98 26.8 80.2 12 -5.1 22.7
21:05 1017 30.03 846 24.98 26.7 80.1 11 -5.4 22.4
21:10 1017 30.03 846 24.98 26.7 80.1 11 -5.5 22.1
21:15 1017 30.03 847 25.01 26.9 80.5 11 -5.6 21.9
21:20 1017 30.03 847 25.01 26.7 80.1 12 -4.9 23.1
21:25 1017 30.03 847 25.01 26.3 79.3 12 -5.3 22.5
21:30 1018 30.06 847 25.01 26 78.7 12 -5.4 22.3
21:35 1018 30.06 847 25.01 25.8 78.4 12 -5.1 22.8
21:40 1018 30.06 847 25.01 25.3 77.5 14 -3.5 25.6
21:45 1018 30.06 847 25.01 24.6 76.2 15 -3.9 25
21:50 1018 30.06 847 25.01 24.4 75.9 14 -4.4 24.1
21:55 1018 30.06 847 25.01 24.5 76.1 14 -4.4 24
22:00 1018 30.06 847 25.01 24.3 75.7 15 -4.1 24.6
22:05 1018 30.06 847 25.01 23.9 75 17 -2.1 28.3
22:10 1018 30.06 847 25.01 23.1 73.6 20 -1 30.3
22:15 1018 30.06 847 25.01 22.3 72.1 20 -1.9 28.6
22:20 1018 30.06 847 25.01 21.7 71.1 22 -1 30.2
22:25 1018 30.06 847 25.01 21.4 70.6 23 -0.6 30.9
22:30 1018 30.06 847 25.01 21.3 70.3 21 -1.6 29
22:35 1018 30.06 847 25.01 21.2 70.1 24 0.2 32.3
22:40 1018 30.06 847 25.01 21.1 70 21 -2.1 28.3
22:45 1018 30.06 847 25.01 21.2 70.2 21 -2 28.4
22:50 1018 30.06 847 25.01 21.3 70.4 20 -2.5 27.5
22:55 1018 30.06 847 25.01 21.4 70.6 20 -2.3 27.9
23:00 1018 30.06 847 25.01 21.2 70.2 20 -2.5 27.4
23:05 1018 30.06 847 25.01 21 69.9 21 -2 28.5
23:10 1018 30.06 847 25.01 20.7 69.3 21 -1.9 28.6
23:15 1018 30.06 847 25.01 20.3 68.6 22 -1.8 28.7
23:20 1018 30.06 847 25.01 20 68 23 -1.5 29.3
23:25 1018 30.06 847 25.01 19.8 67.6 23 -1.7 28.9
23:30 1018 30.06 847 25.01 19.8 67.6 23 -1.9 28.6
23:35 1018 30.06 847 25.01 19.7 67.5 23 -2 28.4
23:40 1018 30.06 847 25.01 19.8 67.6 22 -2.2 28
23:45 1018 30.06 847 25.01 19.9 67.7 22 -2.5 27.5
23:50 1018 30.06 847 25.01 20.1 68.2 21 -2.5 27.5
23:55 1018 30.06 847 25.01 19.9 67.9 22 -2.2 28.1
24:00 1018 30.06 847 25.01 19.9 67.8 22 -2.2 28